Time;durP1;ratioP1;P1;durP2;ratioP2;P2;SDS_P1;SDS_P2;PMS_P1;PMS_P2;Temp;Humidity;BMP_temperature;BMP_pressure;BME280_temperature;BME280_humidity;BME280_pressure;Samples;Min_cycle;Max_cycle;Signal;HPM_P1;HPM_P2
2023/03/01 00:00:30;;;;;;;22.75;10.88;;;;;;;;;;1033384;28;20047;-29
2023/03/01 00:01:04;;;;;;;14.23;7.63;;;;;;;;;;1033486;28;20128;-29
2023/03/01 00:01:35;;;;;;;14.13;8.52;;;;;;;;;;1033453;28;20470;-29
2023/03/01 00:02:06;;;;;;;12.90;7.32;;;;;;;;;;1034390;28;20025;-29
2023/03/01 00:02:36;;;;;;;12.35;8.13;;;;;;;;;;1033458;28;20026;-29
2023/03/01 00:03:07;;;;;;;24.23;7.55;;;;;;;;;;1033559;28;20482;-29
2023/03/01 00:03:37;;;;;;;20.38;10.07;;;;;;;;;;1033309;28;20398;-29
2023/03/01 00:04:08;;;;;;;23.20;9.80;;;;;;;;;;1033428;28;20053;-29
2023/03/01 00:04:38;;;;;;;12.65;6.68;;;;;;;;;;1033184;28;20125;-29
2023/03/01 00:05:09;;;;;;;25.80;8.43;;;;;;;;;;1033610;28;20027;-29
2023/03/01 00:05:46;;;;;;;11.20;6.35;;;;;;;;;;1033214;28;20379;-29
2023/03/01 00:06:17;;;;;;;20.63;8.68;;;;;;;;;;1033383;28;20018;-29
2023/03/01 00:06:47;;;;;;;12.13;6.45;;;;;;;;;;1033361;28;20018;-29
2023/03/01 00:07:18;;;;;;;7.38;4.15;;;;;;;;;;1033360;28;20029;-29
2023/03/01 00:07:51;;;;;;;15.20;9.02;;;;;;;;;;1032868;28;20117;-29
2023/03/01 00:08:22;;;;;;;23.88;8.48;;;;;;;;;;1033416;28;20030;-29
2023/03/01 00:08:53;;;;;;;25.77;7.03;;;;;;;;;;1033259;28;20050;-29
2023/03/01 00:09:24;;;;;;;15.23;7.55;;;;;;;;;;1033344;28;20030;-29
2023/03/01 00:09:54;;;;;;;18.10;9.27;;;;;;;;;;1033385;28;20479;-29
2023/03/01 00:10:25;;;;;;;25.67;12.65;;;;;;;;;;1033382;28;20394;-29
2023/03/01 00:11:01;;;;;;;22.92;15.57;;;;;;;;;;1034477;28;20021;-29
2023/03/01 00:11:33;;;;;;;39.00;17.10;;;;;;;;;;1033295;28;20018;-29
2023/03/01 00:12:04;;;;;;;24.17;17.40;;;;;;;;;;1033379;28;20025;-29
2023/03/01 00:12:36;;;;;;;22.10;15.43;;;;;;;;;;1032633;28;20093;-30
2023/03/01 00:13:06;;;;;;;29.15;16.73;;;;;;;;;;1033549;28;20030;-29
2023/03/01 00:13:37;;;;;;;30.85;15.50;;;;;;;;;;1033394;28;20026;-29
2023/03/01 00:14:07;;;;;;;29.25;14.65;;;;;;;;;;1033313;28;20112;-29
2023/03/01 00:14:38;;;;;;;14.98;8.02;;;;;;;;;;1033347;28;20029;-29
2023/03/01 00:15:08;;;;;;;13.40;7.07;;;;;;;;;;1033468;28;20120;-29
2023/03/01 00:15:40;;;;;;;10.65;6.90;;;;;;;;;;1033302;28;20022;-29
2023/03/01 00:16:12;;;;;;;17.63;9.60;;;;;;;;;;1033526;28;20023;-29
2023/03/01 00:16:44;;;;;;;10.30;7.22;;;;;;;;;;1033137;28;20479;-29
2023/03/01 00:17:14;;;;;;;13.98;9.30;;;;;;;;;;1033569;28;20133;-29
2023/03/01 00:17:45;;;;;;;20.65;9.80;;;;;;;;;;1033230;28;20033;-29
2023/03/01 00:18:15;;;;;;;14.15;7.03;;;;;;;;;;1032506;28;20026;-29
2023/03/01 00:18:46;;;;;;;14.95;8.88;;;;;;;;;;1032746;28;20026;-29
2023/03/01 00:19:18;;;;;;;19.45;9.30;;;;;;;;;;1033310;28;20026;-29
2023/03/01 00:19:48;;;;;;;7.55;6.55;;;;;;;;;;1033430;28;20061;-29
2023/03/01 00:20:19;;;;;;;23.23;10.90;;;;;;;;;;1033104;28;20484;-29
2023/03/01 00:20:53;;;;;;;13.70;8.45;;;;;;;;;;1033103;28;20022;-30
2023/03/01 00:21:24;;;;;;;15.82;8.05;;;;;;;;;;1033335;28;20034;-29
2023/03/01 00:21:55;;;;;;;12.75;6.65;;;;;;;;;;1033459;28;20056;-29
2023/03/01 00:22:28;;;;;;;13.82;7.15;;;;;;;;;;1033296;28;20032;-29
2023/03/01 00:22:58;;;;;;;24.75;7.75;;;;;;;;;;1033430;28;20029;-29
2023/03/01 00:23:28;;;;;;;13.93;8.95;;;;;;;;;;1033253;28;20041;-29
2023/03/01 00:23:59;;;;;;;21.35;8.60;;;;;;;;;;1033425;28;20072;-29
2023/03/01 00:24:29;;;;;;;19.65;6.90;;;;;;;;;;1033154;28;20057;-29
2023/03/01 00:25:00;;;;;;;17.35;6.68;;;;;;;;;;1033360;28;20025;-29
2023/03/01 00:25:30;;;;;;;14.65;6.95;;;;;;;;;;1033220;28;20095;-29
2023/03/01 00:26:01;;;;;;;10.25;6.82;;;;;;;;;;1033514;28;20033;-29
2023/03/01 00:26:32;;;;;;;14.20;8.55;;;;;;;;;;1033382;28;20032;-29
2023/03/01 00:27:02;;;;;;;9.57;6.65;;;;;;;;;;1034090;28;20022;-29
2023/03/01 00:27:33;;;;;;;16.30;8.98;;;;;;;;;;1034151;28;20161;-29
2023/03/01 00:28:03;;;;;;;7.90;6.90;;;;;;;;;;1034203;28;20028;-27
2023/03/01 00:28:34;;;;;;;18.17;8.45;;;;;;;;;;1033937;28;20517;-29
2023/03/01 00:29:04;;;;;;;16.52;7.32;;;;;;;;;;1034189;28;20030;-29
2023/03/01 00:29:35;;;;;;;12.77;7.78;;;;;;;;;;1034121;28;20050;-29
2023/03/01 00:30:05;;;;;;;15.60;7.15;;;;;;;;;;1034080;28;20022;-29
2023/03/01 00:30:36;;;;;;;14.43;7.50;;;;;;;;;;1034049;28;20030;-29
2023/03/01 00:31:08;;;;;;;6.90;4.10;;;;;;;;;;1034252;28;20081;-29
2023/03/01 00:31:39;;;;;;;14.48;7.40;;;;;;;;;;1033758;28;20030;-29
2023/03/01 00:32:09;;;;;;;15.85;7.30;;;;;;;;;;1034291;28;20072;-29
2023/03/01 00:32:40;;;;;;;20.85;8.75;;;;;;;;;;1034118;28;20033;-29
2023/03/01 00:33:11;;;;;;;9.27;5.97;;;;;;;;;;1033954;28;20026;-30
2023/03/01 00:33:41;;;;;;;14.35;6.10;;;;;;;;;;1033929;28;20398;-29
2023/03/01 00:34:12;;;;;;;7.22;4.93;;;;;;;;;;1034174;28;20026;-29
2023/03/01 00:34:42;;;;;;;12.25;8.20;;;;;;;;;;1033974;28;20038;-29
2023/03/01 00:35:13;;;;;;;8.48;7.07;;;;;;;;;;1034044;28;20033;-29
2023/03/01 00:35:43;;;;;;;13.00;6.88;;;;;;;;;;1033982;28;20549;-28
2023/03/01 00:36:15;;;;;;;12.85;7.80;;;;;;;;;;1033867;28;20026;-29
2023/03/01 00:36:46;;;;;;;18.98;5.82;;;;;;;;;;1033885;28;20030;-29
2023/03/01 00:37:16;;;;;;;9.52;5.00;;;;;;;;;;1033978;28;20043;-29
2023/03/01 00:37:47;;;;;;;12.60;7.38;;;;;;;;;;1034246;28;20026;-29
2023/03/01 00:38:17;;;;;;;16.30;9.82;;;;;;;;;;1033007;28;20026;-29
2023/03/01 00:38:48;;;;;;;16.48;7.53;;;;;;;;;;1033539;28;20072;-29
2023/03/01 00:39:18;;;;;;;10.63;6.03;;;;;;;;;;1033911;28;20022;-29
2023/03/01 00:39:49;;;;;;;13.75;7.03;;;;;;;;;;1034061;28;20036;-29
2023/03/01 00:40:19;;;;;;;11.40;6.95;;;;;;;;;;1033521;28;20440;-29
2023/03/01 00:40:50;;;;;;;13.27;6.97;;;;;;;;;;1032286;28;20113;-29
2023/03/01 00:41:22;;;;;;;12.55;5.57;;;;;;;;;;1034357;28;20029;-30
2023/03/01 00:41:52;;;;;;;13.88;6.88;;;;;;;;;;1034150;28;20512;-30
2023/03/01 00:42:23;;;;;;;6.38;4.18;;;;;;;;;;1033906;28;20033;-29
2023/03/01 00:42:53;;;;;;;7.43;5.05;;;;;;;;;;1033749;28;20140;-29
2023/03/01 00:43:24;;;;;;;10.40;5.72;;;;;;;;;;1033759;28;20054;-29
2023/03/01 00:43:55;;;;;;;7.88;5.05;;;;;;;;;;1034034;28;20030;-29
2023/03/01 00:44:25;;;;;;;15.23;5.57;;;;;;;;;;1033377;28;20026;-29
2023/03/01 00:44:56;;;;;;;13.45;6.57;;;;;;;;;;1034150;28;20438;-29
2023/03/01 00:45:27;;;;;;;11.02;7.05;;;;;;;;;;1032637;28;20050;-29
2023/03/01 00:46:00;;;;;;;10.75;4.57;;;;;;;;;;1033998;28;20038;-29
2023/03/01 00:46:31;;;;;;;13.88;4.88;;;;;;;;;;1030937;28;20029;-29
2023/03/01 00:47:01;;;;;;;16.70;7.15;;;;;;;;;;1034007;28;20026;-29
2023/03/01 00:47:32;;;;;;;11.00;5.85;;;;;;;;;;1033726;28;20026;-29
2023/03/01 00:48:03;;;;;;;8.27;5.45;;;;;;;;;;1033941;28;20027;-30
2023/03/01 00:48:33;;;;;;;8.80;4.40;;;;;;;;;;1033859;28;20026;-29
2023/03/01 00:49:04;;;;;;;10.60;7.10;;;;;;;;;;1033807;28;20415;-29
2023/03/01 00:49:35;;;;;;;7.05;5.88;;;;;;;;;;1033676;28;20026;-27
2023/03/01 00:50:05;;;;;;;11.63;6.05;;;;;;;;;;1032711;28;20022;-29
2023/03/01 00:50:36;;;;;;;10.93;6.50;;;;;;;;;;1033511;28;20033;-29
2023/03/01 00:51:09;;;;;;;13.95;6.88;;;;;;;;;;1033413;28;20018;-28
2023/03/01 00:51:41;;;;;;;9.77;5.85;;;;;;;;;;1032914;28;20070;-25
2023/03/01 00:52:11;;;;;;;11.80;7.30;;;;;;;;;;1032766;28;20439;-29
2023/03/01 00:52:42;;;;;;;16.08;6.10;;;;;;;;;;1033899;28;20022;-28
2023/03/01 00:53:13;;;;;;;14.88;8.63;;;;;;;;;;1033911;28;20036;-28
2023/03/01 00:53:45;;;;;;;14.13;7.70;;;;;;;;;;1031521;28;20132;-28
2023/03/01 00:54:15;;;;;;;27.33;8.25;;;;;;;;;;1031463;28;20060;-29
2023/03/01 00:54:46;;;;;;;20.73;7.90;;;;;;;;;;1031445;28;20386;-27
2023/03/01 00:55:17;;;;;;;29.55;8.55;;;;;;;;;;1031358;28;20125;-29
2023/03/01 00:55:47;;;;;;;14.43;8.80;;;;;;;;;;1029784;28;20023;-29
2023/03/01 00:56:18;;;;;;;17.58;11.52;;;;;;;;;;1034019;28;20022;-29
2023/03/01 00:56:48;;;;;;;13.77;6.25;;;;;;;;;;1033844;28;20033;-28
2023/03/01 00:57:19;;;;;;;12.98;8.55;;;;;;;;;;1033661;28;20461;-30
2023/03/01 00:57:49;;;;;;;21.15;8.68;;;;;;;;;;1033817;28;20478;-30
2023/03/01 00:58:20;;;;;;;23.85;11.35;;;;;;;;;;1033921;28;20030;-30
2023/03/01 00:58:50;;;;;;;18.15;8.18;;;;;;;;;;1032848;28;20029;-29
2023/03/01 00:59:21;;;;;;;17.70;7.88;;;;;;;;;;1033793;28;20026;-29
2023/03/01 00:59:54;;;;;;;18.67;9.10;;;;;;;;;;1033814;28;20033;-29
2023/03/01 01:00:27;;;;;;;18.60;7.93;;;;;;;;;;1034030;28;20546;-29
2023/03/01 01:00:58;;;;;;;13.38;7.68;;;;;;;;;;1033949;28;20026;-29
2023/03/01 01:01:30;;;;;;;19.15;10.35;;;;;;;;;;1033392;28;20025;-29
2023/03/01 01:02:00;;;;;;;11.52;7.90;;;;;;;;;;1034164;28;20033;-29
2023/03/01 01:02:32;;;;;;;20.70;8.13;;;;;;;;;;1033933;28;20650;-30
2023/03/01 01:03:03;;;;;;;19.35;11.20;;;;;;;;;;1033857;28;20041;-29
2023/03/01 01:03:33;;;;;;;23.98;10.05;;;;;;;;;;1033868;28;20030;-29
2023/03/01 01:04:05;;;;;;;19.25;10.73;;;;;;;;;;1033964;28;20032;-30
2023/03/01 01:04:35;;;;;;;22.08;9.00;;;;;;;;;;1033057;28;20045;-30
2023/03/01 01:05:06;;;;;;;21.23;10.82;;;;;;;;;;1033913;28;20072;-30
2023/03/01 01:05:36;;;;;;;24.13;10.90;;;;;;;;;;1033675;28;20140;-30
2023/03/01 01:06:12;;;;;;;24.17;11.80;;;;;;;;;;1033472;28;20028;-29
2023/03/01 01:06:45;;;;;;;22.63;11.43;;;;;;;;;;1034278;28;20123;-29
2023/03/01 01:07:15;;;;;;;26.90;10.63;;;;;;;;;;1033469;28;20393;-29
2023/03/01 01:07:45;;;;;;;20.23;11.73;;;;;;;;;;1034910;28;20041;-29
2023/03/01 01:08:16;;;;;;;21.10;9.88;;;;;;;;;;1033981;28;20026;-30
2023/03/01 01:08:47;;;;;;;41.28;11.85;;;;;;;;;;1033547;28;20022;-30
2023/03/01 01:09:18;;;;;;;16.17;9.82;;;;;;;;;;1033548;28;20026;-30
2023/03/01 01:09:48;;;;;;;23.10;11.07;;;;;;;;;;1034243;28;20093;-29
2023/03/01 01:10:19;;;;;;;31.77;14.13;;;;;;;;;;1035124;28;20040;-29
2023/03/01 01:10:49;;;;;;;14.65;9.20;;;;;;;;;;1033932;28;20090;-30
2023/03/01 01:11:20;;;;;;;16.52;9.32;;;;;;;;;;1033615;28;20022;-29
2023/03/01 01:11:51;;;;;;;28.10;11.60;;;;;;;;;;1033864;28;20037;-29
2023/03/01 01:12:21;;;;;;;26.20;8.95;;;;;;;;;;1033624;28;20496;-29
2023/03/01 01:12:52;;;;;;;16.40;9.32;;;;;;;;;;1033775;28;20022;-29
2023/03/01 01:13:22;;;;;;;19.27;9.90;;;;;;;;;;1033688;28;20057;-29
2023/03/01 01:13:53;;;;;;;26.05;12.35;;;;;;;;;;1033779;28;20093;-30
2023/03/01 01:14:24;;;;;;;26.50;10.85;;;;;;;;;;1033505;28;20710;-29
2023/03/01 01:14:54;;;;;;;34.35;14.30;;;;;;;;;;1033734;28;20028;-29
2023/03/01 01:15:24;;;;;;;28.15;11.07;;;;;;;;;;1033792;28;20030;-29
2023/03/01 01:16:00;;;;;;;39.25;12.52;;;;;;;;;;1033507;28;20022;-29
2023/03/01 01:16:30;;;;;;;28.10;13.95;;;;;;;;;;1033108;28;20023;-30
2023/03/01 01:17:01;;;;;;;26.08;13.32;;;;;;;;;;1032679;28;20026;-28
2023/03/01 01:17:31;;;;;;;28.33;14.18;;;;;;;;;;1033477;28;20402;-29
2023/03/01 01:18:02;;;;;;;33.55;15.43;;;;;;;;;;1033974;28;20084;-29
2023/03/01 01:18:33;;;;;;;26.45;14.25;;;;;;;;;;1032790;28;20096;-30
2023/03/01 01:19:03;;;;;;;39.65;13.25;;;;;;;;;;1033533;28;20030;-30
2023/03/01 01:19:34;;;;;;;35.92;14.50;;;;;;;;;;1033344;28;20026;-30
2023/03/01 01:20:04;;;;;;;32.53;16.75;;;;;;;;;;1033874;28;20121;-29
2023/03/01 01:20:36;;;;;;;30.88;14.35;;;;;;;;;;1032705;28;20026;-29
2023/03/01 01:21:08;;;;;;;23.15;15.35;;;;;;;;;;1033015;28;20141;-29
2023/03/01 01:21:39;;;;;;;35.30;14.98;;;;;;;;;;1032378;28;20113;-29
2023/03/01 01:22:09;;;;;;;20.73;12.10;;;;;;;;;;1033068;28;20390;-29
2023/03/01 01:22:40;;;;;;;36.05;13.35;;;;;;;;;;1033798;28;20018;-30
2023/03/01 01:23:10;;;;;;;48.72;17.88;;;;;;;;;;1033792;28;20037;-29
2023/03/01 01:23:42;;;;;;;38.63;15.82;;;;;;;;;;1032996;28;20032;-29
2023/03/01 01:24:13;;;;;;;25.10;14.20;;;;;;;;;;1036934;28;20120;-29
2023/03/01 01:24:43;;;;;;;36.92;13.23;;;;;;;;;;1036797;28;20034;-29
2023/03/01 01:25:14;;;;;;;27.48;12.70;;;;;;;;;;1037228;28;20026;-29
2023/03/01 01:25:44;;;;;;;26.77;12.40;;;;;;;;;;1037247;28;20028;-29
2023/03/01 01:26:25;;;;;;;15.93;8.60;;;;;;;;;;1033105;28;20434;-29
2023/03/01 01:26:56;;;;;;;19.85;12.05;;;;;;;;;;1032508;28;20022;-29
2023/03/01 01:27:26;;;;;;;38.25;15.23;;;;;;;;;;1031807;28;20454;-29
2023/03/01 01:27:57;;;;;;;37.90;15.27;;;;;;;;;;1032702;28;20138;-29
2023/03/01 01:28:27;;;;;;;26.98;12.75;;;;;;;;;;1032522;28;20030;-30
2023/03/01 01:28:59;;;;;;;33.92;14.25;;;;;;;;;;1032772;28;20359;-28
2023/03/01 01:29:30;;;;;;;25.95;13.35;;;;;;;;;;1032105;28;20029;-30
2023/03/01 01:30:01;;;;;;;29.63;12.07;;;;;;;;;;1030960;28;20022;-30
2023/03/01 01:30:31;;;;;;;25.40;13.82;;;;;;;;;;1030702;28;20525;-30
2023/03/01 01:31:02;;;;;;;19.30;12.35;;;;;;;;;;1030668;28;20026;-29
2023/03/01 01:31:33;;;;;;;25.20;13.35;;;;;;;;;;1030538;28;20129;-29
2023/03/01 01:32:04;;;;;;;29.48;14.45;;;;;;;;;;1031920;28;20034;-29
2023/03/01 01:32:35;;;;;;;27.80;16.50;;;;;;;;;;1032000;28;20022;-30
2023/03/01 01:33:06;;;;;;;23.13;11.68;;;;;;;;;;1032588;28;20022;-30
2023/03/01 01:33:37;;;;;;;29.00;12.77;;;;;;;;;;1032825;28;20018;-29
2023/03/01 01:34:12;;;;;;;31.52;13.25;;;;;;;;;;1031735;28;20026;-29
2023/03/01 01:34:42;;;;;;;25.85;12.57;;;;;;;;;;1028059;28;20450;-29
2023/03/01 01:35:13;;;;;;;24.73;12.30;;;;;;;;;;1028798;28;20030;-29
2023/03/01 01:35:45;;;;;;;25.23;11.93;;;;;;;;;;1029619;28;20638;-29
2023/03/01 01:36:16;;;;;;;23.02;12.30;;;;;;;;;;1032957;28;20457;-30
2023/03/01 01:36:50;;;;;;;24.98;15.93;;;;;;;;;;1032433;28;20088;-28
2023/03/01 01:37:31;;;;;;;27.80;13.77;;;;;;;;;;1032687;28;20040;-29
2023/03/01 01:38:02;;;;;;;20.42;10.93;;;;;;;;;;1031806;28;20030;-30
2023/03/01 01:38:33;;;;;;;19.23;11.57;;;;;;;;;;1031637;28;20770;-29
2023/03/01 01:39:04;;;;;;;24.52;13.13;;;;;;;;;;1033469;28;20029;-29
2023/03/01 01:39:34;;;;;;;36.53;13.65;;;;;;;;;;1032917;28;20517;-29
2023/03/01 01:40:06;;;;;;;28.83;15.68;;;;;;;;;;1032777;28;20073;-29
2023/03/01 01:40:42;;;;;;;29.33;11.98;;;;;;;;;;1032086;28;20275;-29
2023/03/01 01:41:13;;;;;;;38.40;15.75;;;;;;;;;;1033927;28;20394;-30
2023/03/01 01:41:44;;;;;;;29.00;12.18;;;;;;;;;;1032990;28;20442;-29
2023/03/01 01:42:17;;;;;;;28.17;14.85;;;;;;;;;;1032412;28;20029;-29
2023/03/01 01:42:48;;;;;;;19.15;12.20;;;;;;;;;;1033369;28;20148;-29
2023/03/01 01:43:20;;;;;;;32.63;13.98;;;;;;;;;;1031697;28;20585;-29
2023/03/01 01:44:29;;;;;;;28.45;10.25;;;;;;;;;;1033510;28;20045;-29
2023/03/01 01:45:18;;;;;;;24.02;11.02;;;;;;;;;;1015370;29;20146;-29
2023/03/01 01:45:49;;;;;;;22.48;11.60;;;;;;;;;;1016605;29;20024;-29
2023/03/01 01:46:25;;;;;;;25.20;13.55;;;;;;;;;;1015873;29;20024;-29
2023/03/01 01:47:01;;;;;;;23.65;9.95;;;;;;;;;;1016508;29;20036;-29
2023/03/01 01:47:32;;;;;;;17.60;11.00;;;;;;;;;;1014478;29;20027;-28
2023/03/01 01:48:11;;;;;;;13.85;9.15;;;;;;;;;;1015679;29;20036;-29
2023/03/01 01:48:48;;;;;;;36.63;18.20;;;;;;;;;;1008754;29;20051;-28
2023/03/01 01:49:27;;;;;;;67.82;26.95;;;;;;;;;;1010784;29;20090;-29
2023/03/01 01:49:59;;;;;;;79.68;29.50;;;;;;;;;;1010447;29;20037;-30
2023/03/01 01:50:38;;;;;;;74.15;27.10;;;;;;;;;;1009406;29;20510;-30
2023/03/01 01:51:13;;;;;;;93.13;31.85;;;;;;;;;;1027120;28;20116;-30
2023/03/01 01:51:47;;;;;;;108.57;29.77;;;;;;;;;;1028724;28;20202;-30
2023/03/01 01:52:21;;;;;;;69.82;28.98;;;;;;;;;;1031560;28;20026;-29
2023/03/01 01:52:53;;;;;;;88.95;28.30;;;;;;;;;;1032658;28;20072;-30
2023/03/01 01:53:24;;;;;;;70.38;25.50;;;;;;;;;;1032922;28;20029;-30
2023/03/01 01:54:00;;;;;;;59.13;26.02;;;;;;;;;;1032501;28;20026;-30
2023/03/01 01:54:45;;;;;;;53.28;22.80;;;;;;;;;;1032431;28;20116;-29
2023/03/01 01:55:20;;;;;;;44.42;16.52;;;;;;;;;;1032498;28;20073;-30
2023/03/01 01:55:52;;;;;;;54.15;18.27;;;;;;;;;;1032890;28;20058;-29
2023/03/01 01:56:24;;;;;;;40.53;19.27;;;;;;;;;;1033149;28;20037;-29
2023/03/01 01:56:56;;;;;;;79.35;19.65;;;;;;;;;;1033416;28;20457;-29
2023/03/01 01:57:53;;;;;;;50.83;19.25;;;;;;;;;;1033267;28;20041;-29
2023/03/01 01:58:26;;;;;;;40.65;17.83;;;;;;;;;;1029600;28;20038;-29
2023/03/01 01:58:57;;;;;;;44.00;18.95;;;;;;;;;;1033188;28;20037;-29
2023/03/01 01:59:28;;;;;;;53.22;17.33;;;;;;;;;;1034109;28;20022;-29
2023/03/01 02:00:00;;;;;;;48.88;19.25;;;;;;;;;;1032796;28;20406;-29
2023/03/01 02:00:31;;;;;;;52.00;23.70;;;;;;;;;;1032167;28;20026;-30
2023/03/01 02:01:02;;;;;;;45.08;20.55;;;;;;;;;;1033147;28;20033;-30
2023/03/01 02:01:33;;;;;;;57.55;21.23;;;;;;;;;;1032126;28;20038;-30
2023/03/01 02:02:04;;;;;;;53.10;21.45;;;;;;;;;;1033271;28;20030;-29
2023/03/01 02:02:36;;;;;;;49.25;24.20;;;;;;;;;;1032447;28;20022;-29
2023/03/01 02:03:09;;;;;;;73.03;26.60;;;;;;;;;;1032637;28;20124;-29
2023/03/01 02:03:43;;;;;;;50.60;17.63;;;;;;;;;;1032353;28;20356;-30
2023/03/01 02:04:13;;;;;;;32.97;14.57;;;;;;;;;;1032311;28;20032;-30
2023/03/01 02:04:45;;;;;;;35.08;12.32;;;;;;;;;;1033078;28;20042;-29
2023/03/01 02:05:24;;;;;;;19.10;10.52;;;;;;;;;;1032056;28;20030;-29
2023/03/01 02:06:04;;;;;;;13.35;7.00;;;;;;;;;;1032706;28;20034;-30
2023/03/01 02:06:34;;;;;;;;;;;;;;;;;;1033484;28;20028;-29
2023/03/01 02:07:09;;;;;;;13.00;6.72;;;;;;;;;;1032206;28;19914;-30
2023/03/01 02:07:39;;;;;;;22.77;11.32;;;;;;;;;;1033342;28;20034;-27
2023/03/01 02:08:12;;;;;;;18.25;7.68;;;;;;;;;;1033187;28;20026;-29
2023/03/01 02:08:44;;;;;;;25.90;9.63;;;;;;;;;;1032603;28;20128;-29
2023/03/01 02:09:15;;;;;;;23.10;10.73;;;;;;;;;;1033744;28;20065;-29
2023/03/01 02:09:47;;;;;;;17.92;10.13;;;;;;;;;;1033494;28;20440;-28
2023/03/01 02:10:18;;;;;;;31.00;10.07;;;;;;;;;;1033293;28;20113;-28
2023/03/01 02:10:49;;;;;;;28.95;11.27;;;;;;;;;;1033160;28;20021;-28
2023/03/01 02:11:20;;;;;;;46.30;15.35;;;;;;;;;;1033667;28;20025;-29
2023/03/01 02:11:51;;;;;;;50.35;13.55;;;;;;;;;;1033172;28;20508;-30
2023/03/01 02:12:24;;;;;;;38.22;12.85;;;;;;;;;;1032974;28;20041;-30
2023/03/01 02:12:55;;;;;;;40.50;14.25;;;;;;;;;;1033528;28;20022;-28
2023/03/01 02:13:27;;;;;;;43.25;14.65;;;;;;;;;;1033426;28;20030;-28
2023/03/01 02:13:58;;;;;;;31.77;12.07;;;;;;;;;;1030814;28;20022;-28
2023/03/01 02:14:28;;;;;;;49.00;13.38;;;;;;;;;;1033553;28;20061;-29
2023/03/01 02:14:59;;;;;;;64.07;17.77;;;;;;;;;;1031875;28;20019;-29
2023/03/01 02:15:37;;;;;;;48.22;17.15;;;;;;;;;;1032708;28;20410;-29
2023/03/01 02:16:12;;;;;;;51.60;17.98;;;;;;;;;;1032628;28;20030;-27
2023/03/01 02:16:43;;;;;;;46.60;14.77;;;;;;;;;;1032796;28;20026;-29
2023/03/01 02:17:15;;;;;;;26.85;10.98;;;;;;;;;;1031974;28;20037;-29
2023/03/01 02:17:48;;;;;;;20.65;6.93;;;;;;;;;;1032288;28;20026;-28
2023/03/01 02:18:20;;;;;;;25.27;10.20;;;;;;;;;;1032608;28;20467;-29
2023/03/01 02:18:52;;;;;;;15.50;9.13;;;;;;;;;;1032966;28;20041;-28
2023/03/01 02:19:30;;;;;;;16.92;6.47;;;;;;;;;;1033514;28;20043;-29
2023/03/01 02:20:19;;;;;;;22.75;9.45;;;;;;;;;;1033752;28;20030;-28
2023/03/01 02:21:05;;;;;;;16.52;9.85;;;;;;;;;;1033126;28;20054;-28
2023/03/01 02:21:42;;;;;;;20.42;10.93;;;;;;;;;;1030452;28;20026;-29
2023/03/01 02:22:19;;;;;;;19.73;8.23;;;;;;;;;;1029792;28;20033;-29
2023/03/01 02:22:50;;;;;;;18.42;10.50;;;;;;;;;;1031954;28;20095;-28
2023/03/01 02:23:20;;;;;;;19.80;9.88;;;;;;;;;;1032423;28;20030;-29
2023/03/01 02:23:51;;;;;;;9.63;4.30;;;;;;;;;;1031727;28;20497;-29
2023/03/01 02:24:21;;;;;;;14.05;5.85;;;;;;;;;;1032934;28;20072;-28
2023/03/01 02:25:00;;;;;;;13.95;5.40;;;;;;;;;;1034910;28;20072;-29
2023/03/01 02:26:00;;;;;;;16.17;7.78;;;;;;;;;;1035980;28;20025;-29
2023/03/01 02:26:42;;;;;;;14.27;5.40;;;;;;;;;;1019054;29;20905;-29
2023/03/01 02:27:12;;;;;;;10.38;5.43;;;;;;;;;;1031476;28;20030;-29
2023/03/01 02:27:49;;;;;;;5.88;3.88;;;;;;;;;;1032228;28;20034;-29
2023/03/01 02:28:30;;;;;;;12.75;5.82;;;;;;;;;;1032437;28;20030;-28
2023/03/01 02:29:01;;;;;;;16.75;5.30;;;;;;;;;;1031589;28;20428;-28
2023/03/01 02:29:31;;;;;;;14.50;6.25;;;;;;;;;;1032472;28;20493;-28
2023/03/01 02:30:02;;;;;;;31.02;6.50;;;;;;;;;;1032698;28;20566;-29
2023/03/01 02:30:33;;;;;;;10.20;6.68;;;;;;;;;;1032646;28;20033;-28
2023/03/01 02:31:56;;;;;;;26.08;6.35;;;;;;;;;;1032399;28;20084;-30
2023/03/01 02:32:26;;;;;;;15.73;7.03;;;;;;;;;;1031814;28;20117;-29
2023/03/01 02:33:04;;;;;;;9.00;5.05;;;;;;;;;;1030542;28;20426;-29
2023/03/01 02:33:36;;;;;;;14.00;5.05;;;;;;;;;;1031112;28;20037;-29
2023/03/01 02:34:08;;;;;;;10.23;4.38;;;;;;;;;;1032324;28;20126;-29
2023/03/01 02:34:39;;;;;;;13.20;5.78;;;;;;;;;;1030369;28;20529;-30
2023/03/01 02:35:15;;;;;;;14.48;6.25;;;;;;;;;;1031335;28;20649;-29
2023/03/01 02:35:49;;;;;;;8.80;5.35;;;;;;;;;;1031211;28;20038;-29
2023/03/01 02:36:32;;;;;;;17.48;6.82;;;;;;;;;;1031886;28;20478;-29
2023/03/01 02:37:04;;;;;;;12.85;5.93;;;;;;;;;;1027635;28;20032;-30
2023/03/01 02:37:36;;;;;;;9.88;5.57;;;;;;;;;;1030106;28;20036;-30
2023/03/01 02:38:09;;;;;;;9.50;4.35;;;;;;;;;;1032408;28;20398;-30
2023/03/01 02:38:42;;;;;;;11.30;5.57;;;;;;;;;;1032759;28;20037;-29
2023/03/01 02:39:27;;;;;;;13.18;5.75;;;;;;;;;;1031764;28;20034;-29
2023/03/01 02:39:59;;;;;;;8.25;5.32;;;;;;;;;;1030539;28;20452;-30
2023/03/01 02:40:30;;;;;;;12.48;5.70;;;;;;;;;;1031850;28;20030;-30
2023/03/01 02:41:01;;;;;;;11.18;4.38;;;;;;;;;;1030599;28;20062;-29
2023/03/01 02:41:35;;;;;;;15.10;5.85;;;;;;;;;;1025688;28;20553;-29
2023/03/01 02:42:05;;;;;;;8.52;6.00;;;;;;;;;;1027802;28;20022;-29
2023/03/01 02:42:40;;;;;;;9.77;5.15;;;;;;;;;;1031087;28;20041;-30
2023/03/01 02:43:11;;;;;;;9.48;5.15;;;;;;;;;;1030914;28;20339;-29
2023/03/01 02:43:43;;;;;;;15.00;4.28;;;;;;;;;;1030439;28;20559;-30
2023/03/01 02:44:14;;;;;;;7.05;4.68;;;;;;;;;;1024954;28;20061;-29
2023/03/01 02:44:44;;;;;;;9.20;5.68;;;;;;;;;;1027528;28;20215;-29
2023/03/01 02:45:15;;;;;;;27.70;5.82;;;;;;;;;;1027816;28;20389;-30
2023/03/01 02:45:50;;;;;;;9.38;4.75;;;;;;;;;;1031679;28;20029;-30
2023/03/01 02:46:22;;;;;;;11.93;5.75;;;;;;;;;;1032722;28;20030;-30
2023/03/01 02:46:55;;;;;;;11.13;5.95;;;;;;;;;;1032308;28;20088;-29
2023/03/01 02:47:29;;;;;;;10.00;4.18;;;;;;;;;;1031629;28;20113;-30
2023/03/01 02:48:04;;;;;;;9.35;4.03;;;;;;;;;;1032377;28;20100;-30
2023/03/01 02:48:47;;;;;;;13.13;7.13;;;;;;;;;;1030904;28;20091;-28
2023/03/01 02:49:23;;;;;;;23.05;8.30;;;;;;;;;;1032250;28;20456;-29
2023/03/01 02:49:54;;;;;;;10.10;5.68;;;;;;;;;;1030044;28;20061;-29
2023/03/01 02:50:41;;;;;;;9.15;4.68;;;;;;;;;;1031894;28;20035;-30
2023/03/01 02:51:19;;;;;;;11.77;6.78;;;;;;;;;;1030260;28;20034;-30
2023/03/01 02:52:10;;;;;;;6.55;4.28;;;;;;;;;;1028241;28;20022;-30
2023/03/01 02:53:09;;;;;;;12.90;3.97;;;;;;;;;;1030427;28;20038;-29
2023/03/01 02:54:02;;;;;;;11.07;4.03;;;;;;;;;;1008646;29;20041;-29
2023/03/01 02:54:45;;;;;;;12.57;5.15;;;;;;;;;;1015248;28;20376;-29
2023/03/01 02:55:18;;;;;;;13.55;7.03;;;;;;;;;;1019631;28;20823;-29
2023/03/01 02:55:50;;;;;;;25.05;6.57;;;;;;;;;;1023070;28;20526;-29
2023/03/01 02:56:21;;;;;;;15.30;6.70;;;;;;;;;;1024235;28;20046;-29
2023/03/01 02:56:52;;;;;;;19.23;6.15;;;;;;;;;;1026982;28;20042;-29
2023/03/01 02:57:24;;;;;;;16.90;7.40;;;;;;;;;;1029761;28;20449;-29
2023/03/01 02:57:56;;;;;;;16.45;7.05;;;;;;;;;;1026853;28;20034;-29
2023/03/01 02:58:27;;;;;;;15.23;7.32;;;;;;;;;;1028637;28;20576;-30
2023/03/01 02:59:12;;;;;;;15.85;6.85;;;;;;;;;;1031776;28;20025;-30
2023/03/01 02:59:52;;;;;;;10.50;6.03;;;;;;;;;;1030002;28;20037;-31
2023/03/01 03:00:34;;;;;;;10.45;6.20;;;;;;;;;;1030493;28;20041;-29
2023/03/01 03:01:09;;;;;;;22.13;5.35;;;;;;;;;;1032062;28;20017;-31
2023/03/01 03:01:41;;;;;;;17.95;6.38;;;;;;;;;;1029018;28;20042;-31
2023/03/01 03:02:47;;;;;;;14.98;6.28;;;;;;;;;;1028441;28;20022;-30
2023/03/01 03:03:23;;;;;;;22.98;10.48;;;;;;;;;;1027916;28;20180;-30
2023/03/01 03:03:55;;;;;;;20.52;8.13;;;;;;;;;;1026946;28;20030;-30
2023/03/01 03:04:28;;;;;;;15.43;8.98;;;;;;;;;;1033157;28;20445;-30
2023/03/01 03:05:14;;;;;;;17.33;7.25;;;;;;;;;;1031908;28;20022;-30
2023/03/01 03:05:48;;;;;;;10.32;6.20;;;;;;;;;;1030685;28;20060;-31
2023/03/01 03:06:22;;;;;;;12.05;7.85;;;;;;;;;;1030164;28;20408;-30
2023/03/01 03:06:52;;;;;;;12.98;6.47;;;;;;;;;;1032006;28;20053;-30
2023/03/01 03:07:23;;;;;;;17.88;5.00;;;;;;;;;;1033060;28;20034;-30
2023/03/01 03:07:54;;;;;;;8.50;6.05;;;;;;;;;;1032165;28;20033;-30
2023/03/01 03:08:27;;;;;;;17.13;5.72;;;;;;;;;;1031318;28;20034;-30
2023/03/01 03:08:59;;;;;;;11.32;4.28;;;;;;;;;;1027731;28;20397;-30
2023/03/01 03:09:31;;;;;;;7.90;3.72;;;;;;;;;;1029408;28;20032;-30
2023/03/01 03:10:03;;;;;;;22.83;5.15;;;;;;;;;;1026882;28;20069;-30
2023/03/01 03:10:39;;;;;;;14.00;5.43;;;;;;;;;;1025866;28;20066;-31
2023/03/01 03:11:10;;;;;;;5.88;3.80;;;;;;;;;;1027907;28;20065;-30
2023/03/01 03:11:42;;;;;;;9.85;4.75;;;;;;;;;;1023985;28;20045;-31
2023/03/01 03:12:15;;;;;;;10.15;5.78;;;;;;;;;;1025546;28;20987;-30
2023/03/01 03:12:53;;;;;;;11.85;4.30;;;;;;;;;;1023719;28;20031;-30
2023/03/01 03:13:29;;;;;;;13.25;5.88;;;;;;;;;;1026775;28;20596;-29
2023/03/01 03:14:01;;;;;;;6.70;3.50;;;;;;;;;;1026201;28;20089;-31
2023/03/01 03:14:34;;;;;;;9.50;4.70;;;;;;;;;;1027546;28;20031;-31